SBKG/CPV METAR and TAF weather

Enter ICAO airport designator
Station Type Date Time Source
SBKG METAR 2022/12/10 02:00 UTC NOAA

SBKG 100200Z 10007KT 9999 SCT010 22/22 Q1015


Station Type Date Time Source
SBKG Decoded METAR 2022/12/10 02:00 UTC NOAA

Campina Grande, Brazil (SBKG) 07-13S 035-53W
Dec 09, 2022 - 09:00 PM EST / 2022.12.10 0200 UTC
Wind: from the E (100 degrees) at 8 MPH (7 KT):0
Visibility: greater than 7 mile(s):0
Sky conditions: partly cloudy
Temperature: 71 F (22 C)
Dew Point: 71 F (22 C)
Relative Humidity: 100%
Pressure (altimeter): 29.97 in. Hg (1015 hPa)
ob: SBKG 100200Z 10007KT 9999 SCT010 22/22 Q1015
cycle: 2

Station Type Date Time Source
SBKG TAF 2022/12/10 00:33 UTC NOAA

TAF SBKG 092230Z 1000/1012 08010KT 9999 SCT010 TN22/1008Z TX27/1012Z
BECMG 1004/1006 BKN007
BECMG 1009/1011 BKN015
RMK PFV

Example: see airport list